DAAGDAOO

Guest
Details From DAAG - Alger Houari Boumediene
To DAOO - Es Senia
Flight Number -
Tags Generated
Created
Modified
Stats Distance 196 nm / 362 km
Max Altitude 0 ft / 0 m
Waypoints 2
Social Downloads 3
Likes 0
Share VATSIM

Download

Looking for another format? Having issues loading an existing format? Contact us
Advertisement - Login to hide

Notes

Generated

Route

DAAG DAOO

ID Type Via Altitude Latitude Longitude Leg Dist Tot Dist Heading (true) Name
O DAAG APT - 0 ft / 0 m 36.69213˚ 3.17083˚ - 0 nm - -
O DAOO APT - 0 ft / 0 m 35.61852˚ -0.63672˚ 195 nm 195 nm 252° / 250° -

Altitude Profile

Advertisement - Login to hide

Weather


0- 5 10 15 20 25 30 35+ Temperature / ° C

Clouds and Precipitation
Forecast for 2017-12-17 12:00 UTC. Updated an hour ago

Ground ~20,000 ft ~40,000 ft Winds

DAAG

Details ICAO DAAG (ALG)
Name Alger Houari Boumediene
Region Algeria
Timezone Africa/Algiers (UTC+1.0)
Stats Elevation 82 ft / 25 m (AMSL)
Location 36.697521° 3.213079°
Runways 2
Magnetic Variation 1.058° E

METAR

DAAG 171200Z 19003KT 160V240 9999 SCT020 FEW030CB BKN046 12/07 Q1027

Decode

TAF

TAF TAF DAAG 171100Z 1712/1812 02012KT 9999 FEW020TCU BKN040 TEMPO 1712/1718 FEW026CB PROB30 TEMPO 1712/1716 5000 -RA FEW026CB BECMG 1717/1720 VRB02KT FEW023 BECMG 1809/1812 24010KT

Decode

Departure Runways

ID Width Length Bearing (true) Bearing (mag) Surface Threshold Offset Overrun Length
05 197 ft / 60 m 11,459 ft / 3,493 m 52.87° 51.81° Asphalt 0 ft / 0 m 0 ft / 0 m
09 148 ft / 45 m 11,442 ft / 3,487 m 91.75° 90.69° Asphalt 0 ft / 0 m 1,017 ft / 310 m
23 197 ft / 60 m 11,459 ft / 3,493 m 232.89° 231.83° Asphalt 0 ft / 0 m 0 ft / 0 m
27 148 ft / 45 m 11,442 ft / 3,487 m 271.78° 270.72° Asphalt 0 ft / 0 m 0 ft / 0 m

DAOO

Details ICAO DAOO (ORN)
Name ES SENIA
Region Algeria
Timezone Africa/Algiers (UTC+1.0)
Stats Elevation 295 ft / 90 m (AMSL)
Location 35.623858° -0.621183°
Runways 1
Magnetic Variation 0.153° E

METAR

DAOO 171200Z 14003KT 9999 FEW016 14/06 Q1026

Decode

TAF

TAF DAOO 171100Z 1712/1812 07010KT 9999 FEW026 TEMPO 1718/1724 SCT016 BECMG 1722/1724 VRB02KT PROB40 TEMPO 1800/1806 3000 BR BECMG 1809/1812 CAVOK

Decode

Destination Runways

ID Width Length Bearing (true) Bearing (mag) Surface Threshold Offset Overrun Length
07 148 ft / 45 m 10,006 ft / 3,050 m 67.06° 66.91° Asphalt 0 ft / 0 m 328 ft / 100 m
25 148 ft / 45 m 10,006 ft / 3,050 m 247.08° 246.93° Asphalt 196 ft / 60 m 0 ft / 0 m

Popular Alternatives